createdAt,value
2019-04-06T00:00:37.554Z,32.63
2019-04-06T00:03:07.602Z,32.03
2019-04-06T00:05:36.893Z,31.60
2019-04-06T00:08:07.569Z,29.90
2019-04-06T00:10:36.787Z,29.63
2019-04-06T00:13:06.365Z,29.90
2019-04-06T00:15:36.123Z,28.37
2019-04-06T00:18:05.965Z,27.90
2019-04-06T00:20:35.763Z,27.93
2019-04-06T00:23:05.424Z,27.90
2019-04-06T00:25:43.766Z,27.33
2019-04-06T00:28:07.252Z,27.80
2019-04-06T00:30:51.729Z,27.10
2019-04-06T00:33:21.084Z,27.27
2019-04-06T00:35:50.691Z,26.00
2019-04-06T00:38:19.983Z,26.03
2019-04-06T00:40:49.629Z,27.30
2019-04-06T00:43:19.851Z,25.20
2019-04-06T00:45:48.999Z,26.07
2019-04-06T00:48:18.599Z,25.17
2019-04-06T00:50:48.352Z,25.10
2019-04-06T00:53:18.035Z,25.87
2019-04-06T00:55:55.634Z,24.37
2019-04-06T00:58:19.186Z,25.57
2019-04-06T01:00:48.955Z,25.43
2019-04-06T01:03:18.998Z,25.37
2019-04-06T01:05:48.510Z,25.73
2019-04-06T01:08:18.825Z,24.80
2019-04-06T01:10:48.438Z,26.10
2019-04-06T01:13:18.183Z,25.43
2019-04-06T01:15:47.919Z,25.33
2019-04-06T01:18:17.155Z,28.80
2019-04-06T01:20:46.840Z,27.57
2019-04-06T01:23:16.689Z,25.77
2019-04-06T01:25:46.482Z,26.00
2019-04-06T01:28:16.252Z,23.70
2019-04-06T01:30:45.929Z,24.77
2019-04-06T01:33:16.811Z,24.47
2019-04-06T01:35:46.465Z,24.23
2019-04-06T01:38:16.251Z,24.03
2019-04-06T01:40:45.959Z,24.83
2019-04-06T01:43:15.671Z,23.97
2019-04-06T01:45:44.978Z,23.63
2019-04-06T01:48:14.159Z,23.23
2019-04-06T01:50:43.803Z,22.53
2019-04-06T01:53:13.567Z,23.43
2019-04-06T01:55:43.241Z,23.90
2019-04-06T01:58:13.099Z,23.93
2019-04-06T02:00:56.347Z,23.60
2019-04-06T02:03:26.029Z,23.70
2019-04-06T02:05:55.702Z,23.07
2019-04-06T02:08:25.124Z,23.33
2019-04-06T02:10:54.230Z,21.67
2019-04-06T02:13:23.832Z,22.83
2019-04-06T02:15:53.119Z,23.20
2019-04-06T02:18:22.697Z,23.10
2019-04-06T02:20:52.454Z,22.63
2019-04-06T02:23:22.217Z,23.67
2019-04-06T02:25:51.458Z,23.03
2019-04-06T02:28:21.075Z,22.60
2019-04-06T02:31:13.475Z,23.30
2019-04-06T02:34:08.294Z,23.50
2019-04-06T02:36:45.937Z,23.97
2019-04-06T02:39:32.313Z,23.83
2019-04-06T02:42:15.345Z,22.77
2019-04-06T02:44:44.642Z,23.57
2019-04-06T02:47:14.296Z,23.50
2019-04-06T02:49:43.638Z,23.33
2019-04-06T02:52:13.330Z,23.83
2019-04-06T02:54:43.182Z,23.20
2019-04-06T02:57:12.983Z,25.03
2019-04-06T02:59:42.365Z,24.17
2019-04-06T03:02:12.212Z,24.83
2019-04-06T03:04:42.081Z,24.57
2019-04-06T03:07:12.086Z,24.60
2019-04-06T03:09:42.090Z,23.47
2019-04-06T03:12:12.367Z,25.30
2019-04-06T03:14:44.583Z,24.77
2019-04-06T03:17:12.976Z,24.27
2019-04-06T03:19:42.140Z,25.93
2019-04-06T03:22:11.839Z,25.07
2019-04-06T03:24:41.621Z,24.63
2019-04-06T03:27:10.963Z,24.50
2019-04-06T03:29:40.590Z,25.33
2019-04-06T03:32:10.270Z,24.67
2019-04-06T03:34:40.024Z,25.20
2019-04-06T03:37:09.759Z,24.97
2019-04-06T03:39:39.486Z,26.27
2019-04-06T03:42:10.798Z,25.37
2019-04-06T03:44:39.999Z,25.00
2019-04-06T03:47:09.212Z,25.33
2019-04-06T03:49:39.436Z,25.57
2019-04-06T03:52:08.585Z,25.37
2019-04-06T03:54:38.360Z,25.50
2019-04-06T03:57:14.358Z,25.70
2019-04-06T03:59:39.659Z,25.57
2019-04-06T04:02:09.011Z,26.17
2019-04-06T04:04:38.177Z,26.27
2019-04-06T04:07:07.734Z,26.43
2019-04-06T04:09:36.941Z,25.43
2019-04-06T04:12:06.530Z,25.43
2019-04-06T04:14:36.229Z,26.50
2019-04-06T04:17:06.091Z,26.87
2019-04-06T04:19:35.883Z,27.83
2019-04-06T04:22:05.617Z,27.37
2019-04-06T04:24:35.339Z,27.03
2019-04-06T04:27:04.580Z,27.37
2019-04-06T04:29:34.208Z,26.53
2019-04-06T04:32:04.253Z,26.77
2019-04-06T04:34:33.546Z,27.40
2019-04-06T04:37:02.710Z,27.57
2019-04-06T04:39:32.509Z,27.00
2019-04-06T04:42:02.434Z,26.57
2019-04-06T04:44:31.851Z,26.97
2019-04-06T04:47:00.996Z,27.17
2019-04-06T04:49:30.537Z,27.00
2019-04-06T04:52:00.222Z,27.20
2019-04-06T04:54:29.897Z,27.83
2019-04-06T04:56:59.627Z,27.47
2019-04-06T04:59:29.336Z,27.03
2019-04-06T05:01:58.982Z,27.67
2019-04-06T05:04:28.631Z,26.60
2019-04-06T05:06:58.295Z,25.93
2019-04-06T05:09:27.970Z,27.10
2019-04-06T05:11:57.641Z,27.23
2019-04-06T05:14:45.214Z,26.40
2019-04-06T05:17:14.820Z,27.60
2019-04-06T05:19:44.555Z,27.47
2019-04-06T05:22:14.279Z,27.47
2019-04-06T05:24:43.954Z,27.17
2019-04-06T05:27:14.012Z,27.57
2019-04-06T05:29:43.672Z,26.60
2019-04-06T05:32:13.136Z,27.50
2019-04-06T05:34:44.074Z,27.47
2019-04-06T05:37:13.978Z,28.13
2019-04-06T05:39:43.414Z,26.90
2019-04-06T05:42:13.078Z,27.90
2019-04-06T05:44:42.301Z,26.13
2019-04-06T05:47:11.854Z,25.97
2019-04-06T05:49:41.093Z,25.10
2019-04-06T05:52:10.680Z,25.73
2019-04-06T05:54:40.329Z,24.30
2019-04-06T05:57:10.175Z,23.17
2019-04-06T05:59:40.941Z,23.73
2019-04-06T06:02:10.779Z,22.40
2019-04-06T06:04:41.087Z,24.77
2019-04-06T06:07:10.691Z,24.13
2019-04-06T06:09:39.955Z,23.67
2019-04-06T06:12:12.480Z,23.43
2019-04-06T06:14:42.539Z,24.40
2019-04-06T06:17:14.180Z,23.73
2019-04-06T06:19:42.985Z,22.17
2019-04-06T06:22:13.876Z,22.70
2019-04-06T06:24:43.985Z,23.73
2019-04-06T06:27:13.968Z,22.33
2019-04-06T06:29:43.697Z,24.40
2019-04-06T06:32:13.355Z,23.37
2019-04-06T06:34:43.310Z,23.50
2019-04-06T06:37:12.800Z,22.23
2019-04-06T06:39:42.460Z,22.73
2019-04-06T06:42:12.734Z,22.77
2019-04-06T06:44:42.117Z,22.40
2019-04-06T06:47:11.491Z,22.53
2019-04-06T06:49:40.726Z,23.83
2019-04-06T06:52:09.995Z,24.20
2019-04-06T06:54:39.771Z,22.87
2019-04-06T06:57:09.584Z,24.30
2019-04-06T06:59:39.290Z,23.60
2019-04-06T07:02:09.203Z,23.97
2019-04-06T07:04:38.918Z,25.37
2019-04-06T07:07:08.317Z,26.07
2019-04-06T07:09:37.706Z,25.13
2019-04-06T07:12:06.922Z,24.70
2019-04-06T07:14:36.607Z,24.23
2019-04-06T07:17:06.418Z,25.40
2019-04-06T07:19:36.218Z,25.00
2019-04-06T07:22:05.958Z,24.17
2019-04-06T07:24:35.658Z,25.20
2019-04-06T07:27:05.492Z,24.53
2019-04-06T07:29:35.177Z,24.23
2019-04-06T07:32:05.079Z,25.47
2019-04-06T07:34:34.514Z,25.37
2019-04-06T07:37:03.762Z,24.40
2019-04-06T07:39:33.461Z,23.80
2019-04-06T07:42:02.761Z,24.77
2019-04-06T07:44:33.895Z,24.87
2019-04-06T07:47:03.161Z,23.47
2019-04-06T07:49:32.800Z,21.80
2019-04-06T07:52:02.511Z,23.20
2019-04-06T07:54:32.203Z,23.83
2019-04-06T07:57:02.022Z,21.90
2019-04-06T07:59:31.682Z,25.40
2019-04-06T08:02:01.389Z,28.03
2019-04-06T08:04:31.248Z,23.57
2019-04-06T08:07:00.669Z,23.00
2019-04-06T08:09:30.301Z,21.30
2019-04-06T08:12:00.036Z,22.20
2019-04-06T08:14:29.816Z,22.20
2019-04-06T08:16:59.139Z,22.47
2019-04-06T08:19:28.837Z,21.73
2019-04-06T08:21:58.719Z,23.03
2019-04-06T08:24:28.269Z,23.23
2019-04-06T08:26:58.038Z,23.37
2019-04-06T08:29:27.973Z,22.67
2019-04-06T08:31:58.982Z,21.80
2019-04-06T08:34:28.259Z,22.57
2019-04-06T08:36:57.574Z,23.07
2019-04-06T08:39:26.833Z,23.63
2019-04-06T08:41:56.867Z,22.60
2019-04-06T08:44:26.844Z,23.60
2019-04-06T08:46:56.886Z,22.80
2019-04-06T08:49:26.759Z,23.50
2019-04-06T08:51:56.143Z,22.60
2019-04-06T08:54:26.730Z,28.00
2019-04-06T08:56:55.937Z,25.50
2019-04-06T08:59:27.480Z,23.83
2019-04-06T09:01:57.048Z,23.97
2019-04-06T09:04:27.048Z,23.60
2019-04-06T09:06:56.713Z,23.73
2019-04-06T09:09:25.932Z,22.57
2019-04-06T09:11:55.259Z,22.13
2019-04-06T09:14:24.512Z,22.50
2019-04-06T09:16:53.622Z,22.00
2019-04-06T09:19:23.175Z,21.97
2019-04-06T09:21:52.441Z,24.10
2019-04-06T09:24:21.677Z,23.27
2019-04-06T09:26:51.429Z,22.97
2019-04-06T09:29:24.100Z,21.30
2019-04-06T09:31:52.206Z,22.23
2019-04-06T09:34:22.057Z,23.87
2019-04-06T09:36:51.905Z,22.70
2019-04-06T09:39:21.753Z,21.63
2019-04-06T09:41:51.020Z,22.23
2019-04-06T09:44:52.084Z,23.07
2019-04-06T09:47:25.194Z,28.03
2019-04-06T09:50:07.086Z,32.80
2019-04-06T09:53:01.870Z,25.80
2019-04-06T09:55:40.243Z,24.27
2019-04-06T09:58:16.033Z,24.17
2019-04-06T10:01:04.678Z,25.10
2019-04-06T10:03:46.590Z,24.73
2019-04-06T10:06:40.061Z,24.90
2019-04-06T10:09:27.425Z,24.00
2019-04-06T10:12:14.531Z,24.23
2019-04-06T10:14:55.386Z,22.97
2019-04-06T10:17:36.273Z,23.00
2019-04-06T10:20:20.730Z,24.13
2019-04-06T10:23:15.639Z,25.17
2019-04-06T10:25:54.081Z,24.97
2019-04-06T10:28:41.791Z,23.83
2019-04-06T10:31:29.462Z,24.13
2019-04-06T10:34:16.698Z,22.67
2019-04-06T10:37:04.204Z,23.40
2019-04-06T10:39:38.720Z,25.57
2019-04-06T10:42:28.437Z,23.37
2019-04-06T10:45:18.247Z,23.23
2019-04-06T10:48:12.946Z,22.93
2019-04-06T10:51:13.150Z,23.50
2019-04-06T10:54:11.039Z,25.43
2019-04-06T10:56:56.838Z,30.93
2019-04-06T10:59:45.479Z,31.03
2019-04-06T11:02:33.111Z,24.23
2019-04-06T11:05:21.750Z,21.73
2019-04-06T11:07:56.317Z,23.60
2019-04-06T11:10:45.046Z,23.70
2019-04-06T11:13:35.500Z,24.17
2019-04-06T11:16:21.026Z,23.07
2019-04-06T11:19:09.012Z,22.97
2019-04-06T11:21:57.618Z,23.27
2019-04-06T11:24:56.256Z,22.60
2019-04-06T11:27:47.816Z,22.77
2019-04-06T11:30:34.873Z,23.17
2019-04-06T11:33:22.982Z,23.10
2019-04-06T11:36:07.840Z,24.57
2019-04-06T11:38:48.383Z,32.40
2019-04-06T11:41:28.777Z,23.37
2019-04-06T11:44:26.687Z,24.67
2019-04-06T11:47:18.575Z,23.63
2019-04-06T11:50:00.545Z,23.67
2019-04-06T11:52:39.915Z,23.53
2019-04-06T11:55:25.016Z,23.50
2019-04-06T11:58:04.666Z,24.60
2019-04-06T12:00:57.149Z,25.73
2019-04-06T12:03:37.449Z,23.90
2019-04-06T12:06:14.379Z,24.37
2019-04-06T12:09:06.076Z,24.07
2019-04-06T12:11:50.465Z,25.53
2019-04-06T12:14:26.401Z,24.93
2019-04-06T12:17:07.805Z,25.40
2019-04-06T12:20:03.118Z,24.87
2019-04-06T12:22:43.387Z,24.67
2019-04-06T12:25:37.657Z,24.83
2019-04-06T12:28:41.422Z,25.53
2019-04-06T12:31:30.257Z,26.30
2019-04-06T12:34:21.011Z,24.47
2019-04-06T12:36:59.485Z,24.93
2019-04-06T12:39:36.277Z,24.93
2019-04-06T12:42:25.021Z,24.77
2019-04-06T12:45:12.134Z,23.70
2019-04-06T12:47:59.786Z,22.70
2019-04-06T12:50:56.179Z,24.20
2019-04-06T12:53:40.029Z,22.83
2019-04-06T12:56:32.257Z,25.30
2019-04-06T12:59:21.374Z,24.30
2019-04-06T13:02:19.744Z,24.80
2019-04-06T13:05:02.738Z,24.17
2019-04-06T13:08:07.031Z,24.27
2019-04-06T13:10:54.332Z,23.83
2019-04-06T13:13:49.594Z,23.87
2019-04-06T13:16:42.251Z,24.37
2019-04-06T13:19:29.707Z,23.80
2019-04-06T13:22:17.327Z,23.30
2019-04-06T13:25:04.847Z,23.70
2019-04-06T13:27:40.049Z,23.53
2019-04-06T13:30:27.563Z,23.33
2019-04-06T13:33:18.722Z,25.73
2019-04-06T13:36:07.974Z,37.73
2019-04-06T13:38:57.408Z,22.60
2019-04-06T13:41:54.806Z,22.63
2019-04-06T13:44:47.020Z,20.80
2019-04-06T13:47:29.833Z,23.37
2019-04-06T13:50:10.991Z,21.73
2019-04-06T13:53:02.504Z,22.63
2019-04-06T13:55:58.463Z,22.23
2019-04-06T13:58:35.663Z,22.60
2019-04-06T14:01:23.124Z,22.77
2019-04-06T14:04:03.564Z,20.73
2019-04-06T14:07:00.338Z,20.70
2019-04-06T14:09:41.684Z,20.97
2019-04-06T14:12:30.536Z,20.80
2019-04-06T14:15:15.880Z,21.37
2019-04-06T14:18:10.354Z,22.63
2019-04-06T14:20:59.253Z,21.70
2019-04-06T14:23:59.660Z,20.67
2019-04-06T14:26:40.222Z,21.77
2019-04-06T14:29:38.152Z,19.77
2019-04-06T14:32:27.014Z,21.23
2019-04-06T14:35:10.613Z,20.07
2019-04-06T14:37:50.201Z,31.27
2019-04-06T14:40:38.236Z,22.00
2019-04-06T14:43:19.001Z,23.73
2019-04-06T14:46:16.685Z,20.80
2019-04-06T14:49:22.488Z,19.90
2019-04-06T14:52:04.537Z,21.63
2019-04-06T14:54:40.421Z,21.43
2019-04-06T14:57:16.855Z,21.43
2019-04-06T14:59:55.377Z,20.73
2019-04-06T15:02:31.759Z,20.63
2019-04-06T15:05:15.992Z,20.47
2019-04-06T15:07:56.928Z,20.20
2019-04-06T15:10:41.543Z,20.90
2019-04-06T15:13:21.840Z,22.60
2019-04-06T15:16:00.835Z,24.83
2019-04-06T15:18:48.030Z,24.57
2019-04-06T15:21:53.157Z,20.53
2019-04-06T15:24:28.541Z,19.77
2019-04-06T15:27:09.386Z,20.17
2019-04-06T15:30:10.479Z,20.57
2019-04-06T15:33:05.720Z,19.93
2019-04-06T15:35:54.503Z,20.57
2019-04-06T15:39:01.304Z,20.37
2019-04-06T15:41:54.653Z,20.07
2019-04-06T15:44:41.746Z,20.43
2019-04-06T15:47:30.695Z,19.10
2019-04-06T15:50:19.608Z,20.07
2019-04-06T15:52:54.790Z,19.67
2019-04-06T15:55:43.319Z,20.30
2019-04-06T15:58:21.839Z,21.10
2019-04-06T16:01:12.163Z,19.70
2019-04-06T16:03:52.618Z,20.50
2019-04-06T16:06:44.159Z,20.43
2019-04-06T16:09:26.241Z,19.73
2019-04-06T16:12:10.727Z,23.87
2019-04-06T16:14:49.644Z,20.73
2019-04-06T16:17:38.242Z,20.23
2019-04-06T16:20:27.911Z,20.57
2019-04-06T16:23:16.863Z,21.60
2019-04-06T16:26:04.237Z,21.30
2019-04-06T16:28:59.136Z,21.80
2019-04-06T16:31:46.657Z,20.87
2019-04-06T16:34:28.872Z,21.63
2019-04-06T16:37:10.078Z,21.27
2019-04-06T16:39:47.625Z,20.67
2019-04-06T16:42:34.846Z,20.27
2019-04-06T16:45:22.895Z,20.43
2019-04-06T16:48:11.031Z,20.10
2019-04-06T16:50:55.387Z,21.00
2019-04-06T16:53:42.776Z,21.90
2019-04-06T16:56:20.733Z,22.10
2019-04-06T16:58:55.555Z,21.37
2019-04-06T17:01:35.375Z,25.87
2019-04-06T17:04:33.134Z,23.33
2019-04-06T17:07:07.794Z,24.63
2019-04-06T17:10:05.370Z,24.23
2019-04-06T17:12:59.786Z,23.77
2019-04-06T17:15:36.603Z,24.70
2019-04-06T17:18:17.874Z,23.87
2019-04-06T17:21:12.929Z,24.80
2019-04-06T17:24:04.323Z,23.50
2019-04-06T17:26:59.243Z,24.13
2019-04-06T17:29:48.236Z,24.43
2019-04-06T17:32:43.705Z,23.97
2019-04-06T17:35:27.689Z,22.90
2019-04-06T17:38:02.749Z,23.47
2019-04-06T17:40:49.457Z,24.00
2019-04-06T17:43:40.786Z,32.00
2019-04-06T17:46:41.552Z,23.90
2019-04-06T17:49:24.799Z,23.53
2019-04-06T17:52:02.002Z,24.77
2019-04-06T17:54:45.954Z,24.03
2019-04-06T17:57:26.198Z,24.30
2019-04-06T18:00:10.853Z,23.60
2019-04-06T18:02:58.698Z,24.10
2019-04-06T18:05:59.739Z,25.07
2019-04-06T18:08:40.331Z,24.63
2019-04-06T18:11:31.783Z,25.13
2019-04-06T18:14:01.257Z,24.23
2019-04-06T18:16:34.004Z,24.93
2019-04-06T18:19:03.204Z,27.27
2019-04-06T18:21:32.752Z,31.97
2019-04-06T18:24:02.052Z,24.70
2019-04-06T18:26:31.269Z,24.17
2019-04-06T18:29:00.641Z,35.23
2019-04-06T18:31:52.628Z,25.40
2019-04-06T18:34:22.867Z,36.97
2019-04-06T18:37:30.239Z,25.60
2019-04-06T18:40:01.766Z,23.90
2019-04-06T18:42:32.444Z,24.13
2019-04-06T18:45:03.432Z,24.50
2019-04-06T18:47:32.730Z,24.90
2019-04-06T18:50:01.838Z,25.37
2019-04-06T18:52:31.756Z,24.33
2019-04-06T18:55:01.506Z,24.80
2019-04-06T18:57:32.792Z,24.07
2019-04-06T19:00:02.514Z,26.10
2019-04-06T19:02:32.232Z,44.33
2019-04-06T19:05:03.490Z,25.63
2019-04-06T19:07:33.813Z,23.30
2019-04-06T19:10:04.160Z,23.93
2019-04-06T19:12:33.626Z,29.40
2019-04-06T19:15:02.915Z,25.17
2019-04-06T19:17:32.038Z,26.30
2019-04-06T19:20:01.352Z,25.23
2019-04-06T19:22:30.482Z,25.43
2019-04-06T19:25:00.605Z,23.63
2019-04-06T19:27:30.944Z,24.97
2019-04-06T19:30:00.773Z,26.67
2019-04-06T19:32:30.578Z,27.53
2019-04-06T19:34:59.821Z,24.37
2019-04-06T19:37:28.987Z,23.60
2019-04-06T19:39:59.054Z,23.70
2019-04-06T19:42:28.798Z,24.27
2019-04-06T19:44:59.097Z,24.33
2019-04-06T19:47:28.810Z,23.30
2019-04-06T19:49:58.572Z,23.83
2019-04-06T19:52:28.376Z,24.33
2019-04-06T19:54:58.642Z,23.73
2019-04-06T19:57:28.797Z,24.73
2019-04-06T19:59:58.582Z,24.57
2019-04-06T20:02:28.717Z,24.53
2019-04-06T20:04:59.105Z,27.47
2019-04-06T20:07:28.709Z,24.50
2019-04-06T20:09:58.566Z,25.40
2019-04-06T20:12:28.354Z,25.60
2019-04-06T20:14:57.572Z,25.40
2019-04-06T20:17:28.808Z,25.47
2019-04-06T20:19:58.598Z,34.27
2019-04-06T20:22:28.505Z,41.13
2019-04-06T20:24:58.860Z,30.73
2019-04-06T20:27:29.050Z,34.10
2019-04-06T20:29:58.833Z,32.53
2019-04-06T20:32:29.002Z,26.90
2019-04-06T20:34:58.769Z,25.30
2019-04-06T20:37:28.494Z,27.90
2019-04-06T20:39:58.267Z,26.60
2019-04-06T20:42:28.139Z,25.57
2019-04-06T20:44:58.091Z,25.80
2019-04-06T20:47:28.875Z,25.73
2019-04-06T20:49:58.236Z,25.80
2019-04-06T20:52:27.951Z,24.93
2019-04-06T20:54:58.106Z,26.43
2019-04-06T20:57:28.372Z,24.37
2019-04-06T20:59:58.149Z,26.40
2019-04-06T21:02:27.758Z,26.13
2019-04-06T21:04:56.939Z,25.30
2019-04-06T21:07:26.483Z,25.63
2019-04-06T21:09:56.230Z,25.03
2019-04-06T21:12:25.471Z,25.80
2019-04-06T21:14:54.593Z,26.70
2019-04-06T21:17:24.355Z,26.87
2019-04-06T21:19:54.182Z,26.80
2019-04-06T21:22:23.915Z,26.80
2019-04-06T21:24:53.754Z,26.43
2019-04-06T21:27:23.059Z,27.53
2019-04-06T21:29:52.872Z,26.27
2019-04-06T21:32:22.722Z,26.70
2019-04-06T21:34:52.498Z,26.60
2019-04-06T21:37:23.093Z,26.90
2019-04-06T21:39:55.308Z,26.17
2019-04-06T21:42:24.584Z,25.33
2019-04-06T21:44:53.838Z,26.43
2019-04-06T21:47:23.190Z,25.60
2019-04-06T21:49:52.928Z,25.47
2019-04-06T21:52:22.623Z,25.43
2019-04-06T21:54:51.973Z,27.03
2019-04-06T21:57:21.817Z,25.97
2019-04-06T21:59:51.685Z,25.43
2019-04-06T22:02:24.633Z,26.40
2019-04-06T22:04:54.551Z,27.07
2019-04-06T22:07:24.275Z,28.07
2019-04-06T22:09:54.802Z,26.50
2019-04-06T22:12:25.047Z,25.13
2019-04-06T22:14:54.450Z,25.33
2019-04-06T22:17:24.679Z,26.13
2019-04-06T22:19:54.246Z,26.70
2019-04-06T22:22:23.989Z,26.47
2019-04-06T22:24:53.263Z,25.63
2019-04-06T22:27:22.726Z,26.60
2019-04-06T22:29:52.356Z,28.43
2019-04-06T22:32:22.301Z,28.37
2019-04-06T22:34:52.067Z,27.43
2019-04-06T22:37:21.895Z,27.50
2019-04-06T22:39:51.254Z,26.60
2019-04-06T22:42:20.491Z,27.43
2019-04-06T22:44:50.151Z,25.73
2019-04-06T22:47:19.988Z,25.60
2019-04-06T22:49:49.872Z,27.30
2019-04-06T22:52:19.319Z,27.00
2019-04-06T22:54:49.137Z,26.37
2019-04-06T22:57:18.910Z,27.10
2019-04-06T22:59:49.768Z,26.83
2019-04-06T23:02:19.627Z,26.43
2019-04-06T23:05:11.873Z,27.10
2019-04-06T23:07:44.023Z,26.93
2019-04-06T23:10:14.527Z,27.37
2019-04-06T23:12:44.829Z,28.27
2019-04-06T23:15:14.325Z,29.30
2019-04-06T23:17:44.239Z,29.13
2019-04-06T23:20:14.037Z,29.00
2019-04-06T23:22:43.674Z,28.97
2019-04-06T23:25:13.436Z,27.83
2019-04-06T23:27:43.059Z,47.17
2019-04-06T23:30:12.343Z,39.90
2019-04-06T23:32:41.474Z,32.00
2019-04-06T23:35:10.617Z,28.30
2019-04-06T23:37:40.368Z,27.83
2019-04-06T23:40:10.281Z,28.47
2019-04-06T23:42:40.470Z,28.60
2019-04-06T23:45:10.357Z,27.23
2019-04-06T23:47:40.097Z,26.77
2019-04-06T23:50:11.124Z,28.80
2019-04-06T23:52:41.014Z,28.77
2019-04-06T23:55:11.887Z,27.77
2019-04-06T23:57:41.745Z,28.47
